Time;durP1;ratioP1;P1;durP2;ratioP2;P2;SDS_P1;SDS_P2;PMS_P1;PMS_P2;Temp;Humidity;BMP_temperature;BMP_pressure;BME280_temperature;BME280_humidity;BME280_pressure;Samples;Min_cycle;Max_cycle;Signal;HPM_P1;HPM_P2
2023/09/22 04:06:07;;;;;;;0.30;0.20;;;14.60;99.90;;;;;;5336948;23;20517;-67
2023/09/22 04:08:33;;;;;;;0.30;0.30;;;14.60;99.90;;;;;;4953708;29;20486;-67
2023/09/22 04:11:02;;;;;;;0.30;0.20;;;14.60;99.90;;;;;;4955349;29;20191;-64
2023/09/22 04:13:28;;;;;;;0.30;0.30;;;14.60;99.90;;;;;;4958163;28;20531;-65
2023/09/22 04:16:01;;;;;;;0.30;0.20;;;14.60;99.90;;;;;;4958574;28;20433;-67
2023/09/22 04:18:29;;;;;;;0.30;0.30;;;14.70;99.90;;;;;;4959095;29;20391;-64
2023/09/22 04:21:01;;;;;;;0.33;0.33;;;14.70;99.90;;;;;;4958814;29;20460;-66
2023/09/22 04:23:27;;;;;;;0.30;0.20;;;14.70;99.90;;;;;;4958678;29;20418;-64
2023/09/22 04:25:54;;;;;;;0.30;0.20;;;14.70;99.90;;;;;;4940747;29;20418;-66
2023/09/22 04:28:24;;;;;;;0.30;0.30;;;14.70;99.90;;;;;;4958864;29;20852;-67
2023/09/22 04:30:50;;;;;;;0.30;0.30;;;14.70;99.90;;;;;;4958683;29;20391;-68
2023/09/22 04:33:15;;;;;;;0.30;0.30;;;14.70;99.90;;;;;;4958640;29;20431;-67
2023/09/22 04:35:41;;;;;;;0.40;0.37;;;14.70;99.90;;;;;;4957128;28;20436;-70
2023/09/22 04:38:08;;;;;;;0.30;0.20;;;14.60;99.90;;;;;;4958546;29;20727;-66
2023/09/22 04:40:36;;;;;;;0.30;0.30;;;14.60;99.90;;;;;;4941320;29;20493;-71
2023/09/22 04:43:03;;;;;;;0.30;0.20;;;14.60;99.90;;;;;;4958541;29;20757;-64
2023/09/22 04:45:29;;;;;;;0.30;0.20;;;14.60;99.90;;;;;;4957940;28;21001;-68
2023/09/22 04:47:55;;;;;;;0.40;0.40;;;14.60;99.90;;;;;;4957278;29;20496;-65
2023/09/22 04:50:21;;;;;;;0.30;0.30;;;14.60;99.90;;;;;;4958343;29;20475;-65
2023/09/22 04:52:49;;;;;;;0.60;0.60;;;14.60;99.90;;;;;;4958512;29;20424;-66
2023/09/22 04:55:19;;;;;;;0.30;0.30;;;14.60;99.90;;;;;;4958012;28;20414;-66
2023/09/22 04:57:45;;;;;;;0.30;0.20;;;14.60;99.90;;;;;;4958173;29;20408;-70
2023/09/22 05:00:19;;;;;;;0.30;0.20;;;14.60;99.90;;;;;;4958016;29;20783;-67
2023/09/22 05:02:47;;;;;;;0.30;0.30;;;14.60;99.90;;;;;;4958383;29;20185;-63
2023/09/22 05:05:16;;;;;;;0.30;0.23;;;14.60;99.90;;;;;;4957453;28;20803;-63
2023/09/22 05:07:42;;;;;;;0.30;0.20;;;14.60;99.90;;;;;;4957976;29;20188;-68
2023/09/22 05:10:08;;;;;;;0.30;0.30;;;14.60;99.90;;;;;;4958009;29;20414;-62
2023/09/22 05:12:35;;;;;;;0.30;0.20;;;14.50;99.90;;;;;;4957936;29;20181;-69
2023/09/22 05:15:02;;;;;;;0.30;0.20;;;14.50;99.90;;;;;;4940301;29;20452;-62
2023/09/22 05:17:28;;;;;;;0.33;0.33;;;14.50;99.90;;;;;;4957915;29;20444;-69
2023/09/22 05:19:54;;;;;;;0.30;0.30;;;14.50;99.90;;;;;;4957825;29;20499;-62
2023/09/22 05:22:21;;;;;;;0.30;0.30;;;14.50;99.90;;;;;;4957693;29;20416;-69
2023/09/22 05:24:46;;;;;;;0.30;0.20;;;14.50;99.90;;;;;;4957101;28;20443;-62
2023/09/22 05:27:12;;;;;;;0.30;0.30;;;14.40;99.90;;;;;;4957742;29;20405;-68
2023/09/22 05:29:38;;;;;;;0.30;0.30;;;14.40;99.90;;;;;;4957678;29;20180;-66
2023/09/22 05:32:03;;;;;;;0.30;0.20;;;14.50;99.90;;;;;;4957487;29;20239;-63
2023/09/22 05:34:29;;;;;;;0.30;0.20;;;14.50;99.90;;;;;;4957400;28;20213;-64
2023/09/22 05:36:55;;;;;;;0.30;0.30;;;14.40;99.90;;;;;;4957731;29;20235;-64
2023/09/22 05:39:20;;;;;;;0.30;0.20;;;14.50;99.90;;;;;;4940272;29;20221;-68
2023/09/22 05:41:49;;;;;;;0.30;0.20;;;14.50;99.90;;;;;;4957436;29;20252;-62
2023/09/22 05:44:17;;;;;;;0.30;0.20;;;14.50;99.90;;;;;;4957205;29;20248;-63
2023/09/22 05:46:44;;;;;;;0.40;0.40;;;14.60;99.90;;;;;;4957484;28;20420;-62
2023/09/22 05:49:14;;;;;;;0.30;0.30;;;14.60;99.90;;;;;;4957253;29;20412;-66
2023/09/22 05:51:41;;;;;;;0.30;0.20;;;14.60;99.90;;;;;;4957147;29;20424;-64
2023/09/22 05:54:07;;;;;;;0.30;0.20;;;14.60;99.90;;;;;;4940157;29;20419;-67
2023/09/22 05:56:33;;;;;;;0.30;0.20;;;14.60;99.90;;;;;;4957069;28;20436;-63
2023/09/22 05:58:58;;;;;;;1.40;1.40;;;14.70;99.90;;;;;;4957019;29;20415;-65
2023/09/22 06:01:24;;;;;;;0.30;0.30;;;14.70;99.90;;;;;;4958651;29;20424;-65
2023/09/22 06:03:50;;;;;;;0.30;0.20;;;14.70;99.90;;;;;;4957992;29;20196;-65
2023/09/22 06:06:16;;;;;;;0.30;0.20;;;14.70;99.90;;;;;;4956920;28;20631;-63
2023/09/22 06:08:46;;;;;;;0.30;0.20;;;14.70;99.90;;;;;;4939990;29;20204;-65
2023/09/22 06:11:13;;;;;;;0.30;0.30;;;14.70;99.90;;;;;;4956772;29;20748;-65
2023/09/22 06:13:39;;;;;;;0.30;0.20;;;14.80;99.90;;;;;;4955360;29;20419;-63
2023/09/22 06:16:06;;;;;;;0.30;0.30;;;14.80;99.90;;;;;;4955810;28;20436;-65
2023/09/22 06:18:32;;;;;;;0.30;0.30;;;14.80;99.90;;;;;;4955948;29;20428;-64
2023/09/22 06:21:00;;;;;;;0.30;0.20;;;14.80;99.90;;;;;;4955703;29;20463;-69
2023/09/22 06:23:27;;;;;;;0.30;0.30;;;14.90;99.90;;;;;;4955881;29;20412;-65
2023/09/22 06:25:56;;;;;;;0.30;0.30;;;14.90;99.90;;;;;;4955554;28;20424;-68
2023/09/22 06:28:22;;;;;;;0.30;0.30;;;15.00;99.90;;;;;;4956561;29;20487;-63
2023/09/22 06:30:50;;;;;;;0.30;0.20;;;14.90;99.90;;;;;;4956460;29;20962;-67
2023/09/22 06:33:18;;;;;;;0.60;0.43;;;15.00;99.90;;;;;;4956592;29;20555;-62
2023/09/22 06:35:45;;;;;;;0.30;0.20;;;15.00;99.90;;;;;;4955004;28;20498;-67
2023/09/22 06:38:12;;;;;;;0.30;0.20;;;15.00;99.90;;;;;;4956525;29;20424;-63
2023/09/22 06:40:38;;;;;;;0.30;0.30;;;15.00;99.90;;;;;;4939244;29;20445;-67
2023/09/22 06:43:04;;;;;;;0.30;0.30;;;15.00;99.90;;;;;;4955625;29;20419;-62
2023/09/22 06:45:35;;;;;;;0.30;0.30;;;15.10;99.90;;;;;;4953374;28;20449;-64
2023/09/22 06:48:03;;;;;;;0.30;0.30;;;15.10;99.90;;;;;;4956262;29;20416;-66
2023/09/22 06:50:30;;;;;;;0.30;0.20;;;15.10;99.90;;;;;;4955651;29;20456;-66
2023/09/22 06:52:58;;;;;;;0.30;0.30;;;15.10;99.90;;;;;;4956234;29;20931;-64
2023/09/22 06:55:24;;;;;;;0.30;0.20;;;15.10;99.90;;;;;;4955661;29;20437;-65
2023/09/22 06:57:59;;;;;;;0.30;0.20;;;15.10;99.90;;;;;;5110836;27;20535;-64
2023/09/22 07:00:28;;;;;;;0.30;0.20;;;15.10;99.90;;;;;;5109961;28;20861;-67
2023/09/22 07:02:55;;;;;;;0.30;0.20;;;15.20;99.90;;;;;;5111082;28;20641;-66
2023/09/22 07:05:21;;;;;;;0.30;0.30;;;15.20;99.90;;;;;;5102159;28;20430;-65
2023/09/22 07:07:49;;;;;;;0.30;0.30;;;15.20;99.90;;;;;;5090980;28;20761;-66
2023/09/22 07:10:16;;;;;;;0.30;0.20;;;15.30;99.90;;;;;;5090002;28;20486;-67
2023/09/22 07:12:42;;;;;;;0.30;0.20;;;15.30;99.90;;;;;;5090103;28;20494;-66
2023/09/22 07:15:09;;;;;;;0.30;0.30;;;15.30;99.90;;;;;;5089272;28;20468;-66
2023/09/22 07:17:35;;;;;;;0.30;0.30;;;15.30;99.90;;;;;;5074298;28;20750;-70
2023/09/22 07:20:04;;;;;;;0.30;0.30;;;15.30;99.90;;;;;;5090453;28;20433;-70
2023/09/22 07:22:33;;;;;;;0.70;0.37;;;15.30;99.90;;;;;;5090640;28;20441;-65
2023/09/22 07:24:59;;;;;;;0.30;0.20;;;15.30;99.90;;;;;;5089852;28;20450;-71
2023/09/22 07:27:25;;;;;;;0.30;0.30;;;15.30;99.90;;;;;;5090367;28;20459;-71
2023/09/22 07:29:50;;;;;;;0.30;0.20;;;15.30;99.90;;;;;;5090357;28;20485;-68
2023/09/22 07:32:17;;;;;;;0.30;0.30;;;15.30;99.90;;;;;;5090300;28;20183;-67
2023/09/22 07:34:43;;;;;;;0.30;0.20;;;15.40;99.90;;;;;;5089625;28;20700;-67
2023/09/22 07:37:11;;;;;;;0.30;0.30;;;15.50;99.90;;;;;;5090111;28;20446;-67
2023/09/22 07:39:37;;;;;;;0.30;0.30;;;15.60;99.90;;;;;;5090082;28;20181;-64
2023/09/22 07:42:04;;;;;;;0.30;0.30;;;15.70;99.90;;;;;;5090240;28;20839;-70
2023/09/22 07:44:30;;;;;;;0.30;0.30;;;15.70;99.90;;;;;;5089626;28;20416;-69
2023/09/22 07:46:58;;;;;;;0.30;0.30;;;15.90;99.90;;;;;;5089368;28;20513;-66
2023/09/22 07:49:25;;;;;;;0.30;0.20;;;15.90;99.90;;;;;;5089877;28;20923;-66
2023/09/22 07:51:51;;;;;;;0.30;0.20;;;16.00;99.90;;;;;;5090106;28;20406;-66
2023/09/22 07:54:18;;;;;;;0.30;0.30;;;16.20;99.90;;;;;;5086677;28;20428;-62
2023/09/22 07:56:46;;;;;;;0.30;0.30;;;16.30;99.90;;;;;;5088330;28;20945;-63
2023/09/22 07:59:13;;;;;;;0.30;0.20;;;16.40;99.90;;;;;;5090923;28;20495;-61
2023/09/22 08:01:42;;;;;;;0.30;0.30;;;16.40;99.90;;;;;;5101083;28;20960;-61
2023/09/22 08:04:09;;;;;;;0.30;0.30;;;16.50;99.90;;;;;;5089428;28;20388;-61
2023/09/22 08:06:34;;;;;;;0.30;0.20;;;16.50;99.90;;;;;;5102579;28;20430;-60
2023/09/22 08:09:00;;;;;;;0.30;0.20;;;16.50;99.90;;;;;;5098212;28;20408;-61
2023/09/22 08:11:26;;;;;;;0.30;0.30;;;16.50;99.90;;;;;;5094030;28;20181;-61
2023/09/22 08:13:52;;;;;;;0.30;0.30;;;16.50;99.90;;;;;;5075709;28;20559;-61
2023/09/22 08:16:18;;;;;;;0.30;0.30;;;16.40;99.90;;;;;;5076100;28;20202;-61
2023/09/22 08:18:44;;;;;;;0.30;0.20;;;16.40;99.90;;;;;;5076091;28;20182;-60
2023/09/22 08:21:10;;;;;;;0.30;0.20;;;16.30;99.90;;;;;;5076281;28;20478;-60
2023/09/22 08:23:36;;;;;;;0.30;0.20;;;16.30;99.90;;;;;;5075545;28;20178;-61
2023/09/22 08:26:17;;;;;;;0.30;0.30;;;16.30;99.90;;;;;;5075926;28;20496;-60
2023/09/22 08:28:47;;;;;;;0.40;0.40;;;16.30;99.90;;;;;;5075949;28;20591;-60
2023/09/22 08:31:13;;;;;;;0.30;0.30;;;16.30;99.90;;;;;;5075767;28;20422;-61
2023/09/22 08:33:39;;;;;;;0.30;0.20;;;16.40;99.90;;;;;;5075301;28;20387;-61
2023/09/22 08:36:06;;;;;;;0.30;0.30;;;16.50;99.90;;;;;;5075718;28;20452;-61
2023/09/22 08:38:32;;;;;;;0.30;0.20;;;16.50;99.90;;;;;;5075644;28;20405;-60
2023/09/22 08:41:00;;;;;;;0.30;0.30;;;16.40;99.90;;;;;;5075313;28;20836;-61
2023/09/22 08:43:26;;;;;;;0.30;0.20;;;16.50;99.90;;;;;;5068735;28;20401;-60
2023/09/22 08:45:52;;;;;;;0.30;0.27;;;16.60;99.90;;;;;;5074939;28;20417;-71
2023/09/22 08:48:18;;;;;;;0.30;0.30;;;16.60;99.90;;;;;;5075255;28;20455;-70
2023/09/22 08:50:45;;;;;;;0.30;0.20;;;16.70;99.90;;;;;;5075374;28;20182;-70
2023/09/22 08:53:11;;;;;;;0.30;0.30;;;16.80;99.90;;;;;;5055846;28;20191;-68
2023/09/22 08:55:38;;;;;;;0.30;0.30;;;17.00;99.90;;;;;;5054526;28;20793;-71
2023/09/22 08:58:04;;;;;;;0.30;0.30;;;17.10;99.90;;;;;;5074898;28;20495;-69
2023/09/22 09:00:30;;;;;;;0.30;0.20;;;17.20;99.90;;;;;;5074695;28;20481;-63
2023/09/22 09:03:00;;;;;;;0.30;0.30;;;17.40;99.90;;;;;;5076683;28;20527;-70
2023/09/22 09:05:31;;;;;;;0.30;0.30;;;17.50;99.90;;;;;;5074881;28;20456;-66
2023/09/22 09:08:10;;;;;;;0.30;0.30;;;17.60;99.90;;;;;;5075114;28;20870;-69
2023/09/22 09:10:36;;;;;;;0.30;0.20;;;17.70;99.90;;;;;;5074978;28;20411;-72
2023/09/22 09:13:03;;;;;;;0.30;0.20;;;17.90;99.90;;;;;;5075096;28;20434;-69
2023/09/22 09:15:40;;;;;;;0.30;0.20;;;18.30;99.90;;;;;;5073184;28;20435;-68
2023/09/22 09:18:08;;;;;;;0.30;0.30;;;18.50;99.90;;;;;;5074846;28;20411;-66
2023/09/22 09:20:40;;;;;;;0.30;0.30;;;18.80;99.90;;;;;;5073890;28;20386;-69
2023/09/22 09:23:13;;;;;;;0.30;0.30;;;18.90;99.90;;;;;;5074787;28;20418;-72
2023/09/22 09:25:44;;;;;;;0.43;0.43;;;18.90;99.90;;;;;;5074170;28;20446;-68
2023/09/22 09:28:11;;;;;;;0.30;0.20;;;18.90;99.90;;;;;;5075061;28;20429;-69
2023/09/22 09:30:37;;;;;;;0.30;0.30;;;18.70;99.90;;;;;;5074424;28;20777;-69
2023/09/22 09:33:09;;;;;;;0.30;0.20;;;18.60;99.90;;;;;;5074676;28;20390;-63
2023/09/22 09:35:37;;;;;;;0.30;0.20;;;18.60;99.90;;;;;;5072966;28;20797;-65
2023/09/22 09:38:03;;;;;;;0.30;0.20;;;18.50;99.90;;;;;;5074624;28;20421;-68
2023/09/22 09:40:29;;;;;;;0.40;0.30;;;18.50;99.90;;;;;;5074593;28;20381;-65
2023/09/22 09:42:58;;;;;;;0.30;0.30;;;18.50;99.90;;;;;;5074297;28;20901;-65
2023/09/22 09:45:24;;;;;;;0.30;0.30;;;18.50;99.90;;;;;;5074036;28;20189;-67
2023/09/22 09:47:54;;;;;;;0.30;0.30;;;18.40;99.90;;;;;;5073765;28;20833;-67
2023/09/22 09:50:21;;;;;;;0.30;0.30;;;18.30;99.90;;;;;;5072579;28;20445;-67
2023/09/22 09:52:57;;;;;;;0.30;0.20;;;18.30;99.90;;;;;;5073940;28;20547;-68
2023/09/22 09:55:26;;;;;;;0.47;0.40;;;18.40;99.90;;;;;;5073327;28;20480;-69
2023/09/22 09:57:53;;;;;;;0.30;0.20;;;18.50;99.90;;;;;;5080907;28;20433;-69
2023/09/22 10:00:19;;;;;;;0.30;0.20;;;18.50;99.90;;;;;;5075811;28;20406;-67
2023/09/22 10:02:47;;;;;;;0.30;0.30;;;18.50;99.90;;;;;;5072408;28;20423;-67
2023/09/22 10:05:17;;;;;;;0.30;0.30;;;18.40;99.90;;;;;;5073780;28;21048;-62
2023/09/22 10:07:44;;;;;;;0.30;0.20;;;18.40;99.90;;;;;;5073971;28;20460;-66
2023/09/22 10:10:15;;;;;;;0.30;0.30;;;18.40;99.90;;;;;;5074029;28;20419;-65
2023/09/22 10:12:42;;;;;;;0.30;0.30;;;18.40;99.90;;;;;;5072564;28;20407;-66
2023/09/22 10:15:09;;;;;;;0.30;0.20;;;18.50;99.90;;;;;;5073225;28;20442;-67
2023/09/22 10:17:38;;;;;;;0.30;0.30;;;18.70;99.90;;;;;;5073263;28;20481;-61
2023/09/22 10:20:11;;;;;;;0.30;0.20;;;18.90;99.90;;;;;;5073662;28;20407;-65
2023/09/22 10:22:38;;;;;;;0.30;0.20;;;19.00;99.90;;;;;;5073687;28;20491;-69
2023/09/22 10:25:22;;;;;;;0.30;0.20;;;19.30;99.90;;;;;;5073213;28;20430;-65
2023/09/22 10:27:58;;;;;;;0.30;0.20;;;19.70;99.90;;;;;;5073227;28;20423;-67
2023/09/22 10:30:45;;;;;;;0.30;0.20;;;20.10;99.90;;;;;;5072251;28;20411;-66
2023/09/22 10:33:23;;;;;;;0.30;0.30;;;20.30;99.90;;;;;;5053470;28;20752;-69
2023/09/22 10:35:49;;;;;;;0.30;0.20;;;20.60;99.90;;;;;;5053008;28;20973;-66
2023/09/22 10:38:15;;;;;;;0.30;0.20;;;21.10;99.90;;;;;;5053430;28;20462;-64
2023/09/22 10:40:59;;;;;;;0.30;0.30;;;21.50;99.90;;;;;;5053306;28;20415;-65
2023/09/22 10:43:25;;;;;;;0.30;0.20;;;22.10;99.90;;;;;;5053421;28;20455;-65
2023/09/22 10:45:52;;;;;;;0.30;0.30;;;22.20;99.90;;;;;;5056729;28;20429;-65
2023/09/22 10:48:20;;;;;;;0.30;0.20;;;22.40;99.90;;;;;;5073170;28;20408;-66
2023/09/22 10:50:50;;;;;;;0.43;0.43;;;22.40;99.90;;;;;;5073311;28;20794;-67
2023/09/22 10:53:15;;;;;;;0.80;0.80;;;22.40;99.90;;;;;;5073363;28;20831;-64
2023/09/22 10:55:45;;;;;;;0.30;0.20;;;22.30;99.90;;;;;;5072607;28;20389;-71
2023/09/22 10:58:14;;;;;;;0.30;0.20;;;22.20;99.90;;;;;;5073410;28;20176;-64
2023/09/22 11:00:53;;;;;;;0.30;0.20;;;22.00;99.90;;;;;;5072870;28;20397;-71
2023/09/22 11:03:19;;;;;;;0.30;0.20;;;21.90;99.90;;;;;;5073291;28;20406;-70
2023/09/22 11:05:55;;;;;;;0.30;0.30;;;21.60;99.90;;;;;;5072690;28;20439;-72
2023/09/22 11:08:22;;;;;;;0.30;0.20;;;21.50;99.90;;;;;;5073192;28;20414;-72
2023/09/22 11:10:53;;;;;;;0.30;0.30;;;21.50;99.90;;;;;;5072934;28;20443;-71
2023/09/22 11:13:21;;;;;;;0.30;0.20;;;21.30;99.90;;;;;;5067168;28;20896;-69
2023/09/22 11:15:57;;;;;;;0.30;0.30;;;21.20;99.90;;;;;;5072575;28;20520;-72
2023/09/22 11:18:28;;;;;;;0.30;0.30;;;21.10;99.90;;;;;;5072986;28;20377;-72
2023/09/22 11:21:02;;;;;;;0.30;0.30;;;21.00;99.90;;;;;;5073103;28;20403;-70
2023/09/22 11:23:28;;;;;;;0.30;0.20;;;20.90;99.90;;;;;;5073125;28;20372;-69
2023/09/22 11:26:08;;;;;;;0.30;0.30;;;20.80;99.90;;;;;;5072515;28;20435;-70
2023/09/22 11:28:36;;;;;;;0.30;0.20;;;20.90;99.90;;;;;;5072867;28;20875;-70
2023/09/22 11:31:22;;;;;;;0.30;0.20;;;20.90;99.90;;;;;;5071238;28;20395;-66
2023/09/22 11:34:07;;;;;;;0.50;0.40;;;21.00;99.90;;;;;;5072596;28;20886;-70
2023/09/22 11:36:47;;;;;;;0.30;0.30;;;20.90;99.90;;;;;;5071718;28;20455;-65
2023/09/22 11:39:30;;;;;;;0.30;0.20;;;20.80;99.90;;;;;;5072765;28;20401;-65
2023/09/22 11:41:56;;;;;;;0.30;0.20;;;20.70;99.90;;;;;;5073022;28;20414;-63
2023/09/22 11:44:22;;;;;;;0.30;0.20;;;20.70;99.90;;;;;;5072168;28;20829;-64
2023/09/22 11:46:48;;;;;;;0.30;0.20;;;20.70;99.90;;;;;;5076499;28;20899;-64
2023/09/22 11:49:14;;;;;;;0.30;0.20;;;20.70;99.90;;;;;;5076392;28;20414;-66
2023/09/22 11:51:43;;;;;;;0.30;0.30;;;20.80;99.90;;;;;;5075080;28;20879;-67
2023/09/22 11:54:10;;;;;;;0.30;0.30;;;20.90;99.90;;;;;;5076096;28;20182;-67
2023/09/22 11:56:36;;;;;;;0.30;0.20;;;21.10;99.90;;;;;;5075918;28;20458;-67
2023/09/22 11:59:12;;;;;;;0.30;0.20;;;21.30;99.90;;;;;;5075788;28;20394;-67
2023/09/22 12:01:38;;;;;;;0.30;0.30;;;21.40;99.90;;;;;;5057432;28;20495;-69
2023/09/22 12:04:09;;;;;;;0.30;0.30;;;21.60;99.90;;;;;;5055854;28;20509;-71
2023/09/22 12:06:36;;;;;;;0.30;0.20;;;21.80;99.90;;;;;;5056035;28;20400;-70
2023/09/22 12:09:03;;;;;;;0.30;0.30;;;21.80;99.90;;;;;;5055994;28;20385;-68
2023/09/22 12:11:29;;;;;;;0.30;0.30;;;21.60;99.90;;;;;;5056003;28;20848;-69
2023/09/22 12:13:55;;;;;;;0.30;0.20;;;21.60;99.90;;;;;;5062222;28;20427;-69
2023/09/22 12:16:21;;;;;;;0.30;0.20;;;21.60;99.90;;;;;;5074981;28;20437;-67
2023/09/22 12:18:47;;;;;;;0.30;0.20;;;21.50;99.90;;;;;;5075935;28;20173;-66
2023/09/22 12:21:13;;;;;;;0.30;0.30;;;21.40;99.90;;;;;;5075791;28;20161;-68
2023/09/22 12:23:38;;;;;;;0.30;0.20;;;21.40;99.90;;;;;;5075063;28;20396;-67
2023/09/22 12:26:05;;;;;;;0.30;0.27;;;21.30;99.90;;;;;;5075175;28;20782;-67
2023/09/22 12:28:31;;;;;;;0.30;0.20;;;21.20;99.90;;;;;;5074486;28;20674;-67
2023/09/22 12:30:56;;;;;;;0.30;0.30;;;21.10;99.90;;;;;;5075658;28;20405;-67
2023/09/22 12:33:22;;;;;;;0.30;0.30;;;21.10;99.90;;;;;;5076031;28;20657;-68
2023/09/22 12:35:50;;;;;;;0.30;0.20;;;21.00;99.70;;;;;;5073691;28;20284;-66
2023/09/22 12:38:16;;;;;;;0.30;0.20;;;21.00;99.30;;;;;;5074839;28;20539;-65
2023/09/22 12:40:41;;;;;;;0.30;0.30;;;20.80;99.00;;;;;;5074696;28;20792;-67
2023/09/22 12:43:07;;;;;;;0.30;0.20;;;20.70;98.90;;;;;;5074877;28;20413;-64
2023/09/22 12:45:33;;;;;;;0.30;0.30;;;20.60;99.20;;;;;;5074582;28;20403;-68
2023/09/22 12:47:58;;;;;;;0.30;0.27;;;20.70;99.50;;;;;;5075158;28;20197;-64
2023/09/22 12:50:24;;;;;;;0.30;0.30;;;20.80;99.90;;;;;;5075421;28;20222;-68
2023/09/22 12:52:50;;;;;;;0.30;0.20;;;21.00;99.90;;;;;;5075412;28;20931;-69
2023/09/22 12:55:16;;;;;;;0.30;0.20;;;21.00;99.90;;;;;;5074951;28;20754;-68
2023/09/22 12:57:41;;;;;;;0.30;0.20;;;21.10;99.90;;;;;;5074744;28;20283;-67
2023/09/22 13:00:07;;;;;;;0.30;0.20;;;21.20;99.90;;;;;;5073022;28;20610;-68
2023/09/22 13:02:34;;;;;;;0.30;0.20;;;21.20;99.90;;;;;;5075156;28;20226;-68
2023/09/22 13:05:03;;;;;;;0.30;0.20;;;21.30;99.80;;;;;;5074403;28;20781;-62
2023/09/22 13:07:29;;;;;;;0.30;0.27;;;21.40;99.40;;;;;;5075402;28;20408;-63
2023/09/22 13:09:55;;;;;;;0.30;0.30;;;21.30;99.20;;;;;;5074541;28;20445;-61
2023/09/22 13:12:20;;;;;;;0.30;0.20;;;21.20;98.90;;;;;;5074621;28;20182;-64
2023/09/22 13:14:46;;;;;;;0.30;0.20;;;21.00;99.30;;;;;;5074439;28;20230;-63
2023/09/22 13:17:14;;;;;;;0.30;0.20;;;20.90;99.70;;;;;;5074396;28;20233;-65
2023/09/22 13:19:39;;;;;;;0.30;0.30;;;20.70;99.40;;;;;;5074640;28;20499;-60
2023/09/22 13:22:05;;;;;;;0.30;0.30;;;20.40;99.50;;;;;;5074898;28;20883;-62
2023/09/22 13:24:31;;;;;;;0.30;0.30;;;20.20;99.60;;;;;;5073816;28;20180;-62
2023/09/22 13:26:57;;;;;;;0.30;0.30;;;20.00;99.90;;;;;;5074616;28;20275;-63
2023/09/22 13:29:22;;;;;;;0.30;0.30;;;19.90;99.90;;;;;;5073209;28;20886;-62
2023/09/22 13:31:49;;;;;;;0.40;0.40;;;19.80;99.90;;;;;;5072432;28;20210;-62
2023/09/22 13:34:15;;;;;;;0.40;0.40;;;19.80;99.90;;;;;;5071984;28;20169;-60
2023/09/22 13:36:41;;;;;;;0.30;0.30;;;19.70;99.90;;;;;;5072143;28;20462;-62
2023/09/22 13:39:08;;;;;;;0.30;0.30;;;19.80;99.90;;;;;;5072739;28;20407;-61
2023/09/22 13:41:34;;;;;;;0.30;0.30;;;19.90;99.60;;;;;;5072414;28;20396;-60
2023/09/22 13:44:00;;;;;;;0.30;0.30;;;20.00;99.90;;;;;;5071942;28;20426;-63
2023/09/22 13:46:26;;;;;;;0.30;0.20;;;20.10;99.70;;;;;;5073083;28;20800;-60
2023/09/22 13:48:51;;;;;;;0.30;0.30;;;20.20;99.40;;;;;;5073877;28;20189;-63
2023/09/22 13:51:17;;;;;;;0.30;0.30;;;20.30;99.90;;;;;;5074528;28;20419;-62
2023/09/22 13:53:44;;;;;;;0.30;0.23;;;20.60;99.90;;;;;;5073891;28;20177;-63
2023/09/22 13:56:18;;;;;;;0.30;0.23;;;20.80;99.40;;;;;;5073507;28;20433;-64
2023/09/22 13:58:50;;;;;;;0.30;0.20;;;20.90;98.70;;;;;;5073790;28;20400;-63
2023/09/22 14:01:17;;;;;;;0.30;0.20;;;20.90;98.80;;;;;;5073839;28;20838;-59
2023/09/22 14:03:43;;;;;;;0.30;0.20;;;20.90;98.50;;;;;;5073223;28;20426;-63
2023/09/22 14:06:17;;;;;;;0.30;0.20;;;20.90;98.50;;;;;;5071931;28;20413;-62
2023/09/22 14:08:45;;;;;;;0.40;0.40;;;21.00;99.00;;;;;;5072026;28;20389;-63
2023/09/22 14:11:11;;;;;;;0.30;0.20;;;21.10;98.40;;;;;;5073178;28;20418;-61
2023/09/22 14:13:37;;;;;;;0.30;0.30;;;21.00;98.00;;;;;;5073355;28;20383;-67
2023/09/22 14:16:04;;;;;;;0.30;0.27;;;21.00;99.50;;;;;;5073204;28;21003;-66
2023/09/22 14:18:31;;;;;;;0.30;0.30;;;21.00;99.70;;;;;;5073014;28;20422;-67
2023/09/22 14:20:57;;;;;;;0.30;0.30;;;21.00;99.80;;;;;;5073563;28;20482;-68
2023/09/22 14:23:22;;;;;;;0.30;0.30;;;20.90;98.90;;;;;;5073456;28;20805;-67
2023/09/22 14:25:48;;;;;;;0.30;0.30;;;20.80;98.60;;;;;;5072992;28;20195;-67
2023/09/22 14:28:15;;;;;;;0.30;0.20;;;20.70;98.80;;;;;;5073673;28;20210;-67
2023/09/22 14:30:41;;;;;;;0.30;0.30;;;20.60;98.70;;;;;;5073488;28;20837;-68
2023/09/22 14:33:07;;;;;;;0.30;0.20;;;20.50;98.80;;;;;;5073570;28;20803;-66
2023/09/22 14:35:32;;;;;;;0.40;0.40;;;20.40;98.10;;;;;;5073156;28;20481;-67
2023/09/22 14:37:58;;;;;;;0.30;0.30;;;20.30;97.90;;;;;;5073248;28;20251;-67
2023/09/22 14:40:24;;;;;;;0.30;0.30;;;20.20;99.30;;;;;;5072236;28;20286;-68
2023/09/22 14:42:53;;;;;;;0.30;0.30;;;20.10;99.30;;;;;;5074047;28;20200;-67
2023/09/22 14:45:19;;;;;;;0.30;0.30;;;20.00;99.90;;;;;;5072968;28;20824;-68
2023/09/22 14:47:45;;;;;;;0.30;0.30;;;20.00;99.80;;;;;;5072256;28;20407;-67
2023/09/22 14:50:11;;;;;;;0.30;0.30;;;20.10;99.80;;;;;;5073636;28;20508;-68
2023/09/22 14:52:36;;;;;;;0.30;0.30;;;20.20;99.60;;;;;;5073735;28;20572;-67
2023/09/22 14:55:03;;;;;;;0.30;0.30;;;20.30;99.30;;;;;;5073155;28;20196;-67
2023/09/22 14:57:29;;;;;;;0.30;0.30;;;20.40;97.40;;;;;;5073227;28;20266;-67
2023/09/22 14:59:55;;;;;;;0.30;0.30;;;20.40;97.60;;;;;;5073021;28;20407;-68
2023/09/22 15:02:21;;;;;;;0.30;0.20;;;20.40;97.80;;;;;;5072649;28;20415;-68
2023/09/22 15:04:47;;;;;;;0.37;0.30;;;20.40;97.70;;;;;;5072791;28;20185;-68
2023/09/22 15:07:14;;;;;;;0.30;0.30;;;20.30;98.20;;;;;;5072726;28;20427;-68
2023/09/22 15:09:40;;;;;;;0.30;0.27;;;20.40;99.00;;;;;;5073891;28;20407;-67
2023/09/22 15:12:06;;;;;;;0.30;0.20;;;20.50;99.90;;;;;;5072608;28;20449;-67
2023/09/22 15:14:32;;;;;;;0.30;0.30;;;20.40;99.90;;;;;;5072467;28;20419;-65
2023/09/22 15:16:58;;;;;;;0.30;0.20;;;20.30;99.90;;;;;;5072091;28;20432;-67
2023/09/22 15:19:24;;;;;;;0.30;0.30;;;20.10;99.90;;;;;;5075124;28;20184;-66
2023/09/22 15:21:49;;;;;;;0.40;0.40;;;19.90;99.90;;;;;;5077119;28;20382;-61
2023/09/22 15:24:15;;;;;;;0.30;0.30;;;19.70;99.90;;;;;;5075333;28;20211;-61
2023/09/22 15:26:41;;;;;;;0.30;0.20;;;19.50;99.90;;;;;;5076198;28;20211;-63
2023/09/22 15:29:07;;;;;;;0.30;0.30;;;19.30;99.90;;;;;;5066750;28;20428;-62
2023/09/22 15:31:33;;;;;;;0.30;0.30;;;19.20;99.90;;;;;;5076697;28;20494;-61
2023/09/22 15:34:00;;;;;;;0.30;0.30;;;19.10;99.90;;;;;;5076128;28;20173;-63
2023/09/22 15:36:26;;;;;;;0.30;0.20;;;19.00;99.90;;;;;;5076132;28;20455;-61
2023/09/22 15:38:52;;;;;;;0.30;0.30;;;18.90;99.90;;;;;;5076490;28;20431;-66
2023/09/22 15:41:18;;;;;;;0.30;0.30;;;18.80;99.90;;;;;;5076476;28;20203;-66
2023/09/22 15:43:43;;;;;;;0.30;0.30;;;18.70;99.90;;;;;;5075843;28;20411;-66
2023/09/22 15:46:09;;;;;;;0.30;0.20;;;18.70;99.90;;;;;;5076418;28;20534;-66
2023/09/22 15:48:35;;;;;;;0.30;0.30;;;18.70;99.90;;;;;;5076427;28;20390;-64
2023/09/22 15:51:03;;;;;;;0.30;0.20;;;18.60;99.90;;;;;;5075176;28;20824;-62
2023/09/22 15:53:28;;;;;;;0.30;0.30;;;18.60;99.90;;;;;;5076338;28;20916;-65
2023/09/22 15:55:54;;;;;;;0.30;0.27;;;18.60;99.90;;;;;;5075523;28;20458;-63
2023/09/22 15:58:21;;;;;;;0.30;0.30;;;18.60;99.90;;;;;;5075846;28;20176;-63
2023/09/22 16:00:47;;;;;;;0.30;0.30;;;18.50;99.90;;;;;;5076444;28;20388;-62
2023/09/22 16:03:14;;;;;;;0.30;0.30;;;18.50;99.90;;;;;;5076329;28;20403;-64
2023/09/22 16:05:40;;;;;;;0.30;0.20;;;18.40;99.90;;;;;;5075704;28;20822;-60
2023/09/22 16:08:07;;;;;;;0.30;0.30;;;18.30;99.90;;;;;;5076291;28;20414;-60
2023/09/22 16:10:33;;;;;;;0.30;0.20;;;18.30;99.90;;;;;;5074021;28;20439;-61
2023/09/22 16:12:59;;;;;;;0.30;0.20;;;18.30;99.90;;;;;;5065771;28;20421;-62
2023/09/22 16:15:25;;;;;;;0.30;0.23;;;18.30;99.90;;;;;;5064142;28;20197;-63
2023/09/22 16:17:51;;;;;;;0.30;0.30;;;18.20;99.90;;;;;;5065178;28;20987;-59
2023/09/22 16:20:17;;;;;;;0.30;0.20;;;18.20;99.90;;;;;;5065071;28;20423;-61
2023/09/22 16:22:42;;;;;;;0.30;0.30;;;18.10;99.90;;;;;;5064854;28;20165;-61
2023/09/22 16:25:08;;;;;;;0.30;0.20;;;18.00;99.90;;;;;;5065704;28;20192;-60
2023/09/22 16:27:34;;;;;;;0.30;0.27;;;17.90;99.90;;;;;;5064453;28;20172;-61
2023/09/22 16:30:00;;;;;;;0.30;0.30;;;17.80;99.90;;;;;;5064350;28;20907;-60
2023/09/22 16:32:26;;;;;;;0.30;0.30;;;17.60;99.90;;;;;;5065987;28;20176;-60
2023/09/22 16:34:52;;;;;;;0.30;0.30;;;17.50;99.90;;;;;;5063610;28;20400;-60
2023/09/22 16:37:17;;;;;;;0.30;0.30;;;17.40;99.90;;;;;;5065271;28;20201;-62
2023/09/22 16:39:43;;;;;;;0.30;0.30;;;17.30;99.90;;;;;;5063058;28;20164;-59
2023/09/22 16:42:08;;;;;;;0.30;0.30;;;17.20;99.90;;;;;;5054337;28;20174;-62
2023/09/22 16:44:34;;;;;;;0.30;0.20;;;17.20;99.90;;;;;;5053857;28;20170;-63
2023/09/22 16:47:00;;;;;;;0.30;0.30;;;17.00;99.90;;;;;;5054097;28;20214;-60
2023/09/22 16:49:26;;;;;;;0.30;0.30;;;16.90;99.90;;;;;;5055228;28;20580;-59
2023/09/22 16:51:52;;;;;;;0.30;0.20;;;16.80;99.90;;;;;;5059834;28;20182;-61
2023/09/22 16:54:18;;;;;;;0.30;0.30;;;16.70;99.90;;;;;;5075057;28;20424;-60